createdAt,value
2019-05-17T09:13:00.032Z,22.9000
2019-05-17T09:13:12.415Z,22.4000
2019-05-17T09:13:22.883Z,22.3000
2019-05-17T09:13:31.284Z,22.2000
2019-05-17T09:13:40.084Z,22.2000
2019-05-17T09:13:58.317Z,22.2000
2019-05-17T09:14:10.468Z,22.2000
2019-05-17T09:14:21.359Z,22.2000
2019-05-17T09:14:29.918Z,22.3000
2019-05-17T09:14:40.091Z,22.5000
2019-05-17T09:14:49.612Z,22.4000
2019-05-17T09:15:00.258Z,22.4000
2019-05-17T09:15:10.074Z,22.8000
2019-05-17T09:15:20.329Z,23.1000
2019-05-17T09:15:29.670Z,23.3000
2019-05-17T09:15:39.941Z,23.5000
2019-05-17T09:15:49.440Z,23.7000
2019-05-17T09:16:00.146Z,23.9000
2019-05-17T09:16:10.690Z,24.1000
2019-05-17T09:16:19.712Z,24.3000
2019-05-17T09:16:30.574Z,24.6000
2019-05-17T09:16:40.087Z,24.7000
2019-05-17T09:16:50.441Z,24.9000
2019-05-17T09:17:00.430Z,25.1000
2019-05-17T09:17:10.281Z,25.3000
2019-05-17T09:17:19.403Z,25.5000
2019-05-17T09:17:29.913Z,25.7000
2019-05-17T09:17:39.597Z,25.9000
2019-05-17T09:17:49.855Z,26.1000
2019-05-17T09:18:00.281Z,26.2000
2019-05-17T09:18:09.913Z,26.4000
2019-05-17T09:18:20.656Z,26.7000
2019-05-17T09:18:30.163Z,26.8000
2019-05-17T09:18:39.448Z,27.0000
2019-05-17T09:18:50.031Z,27.1000
2019-05-17T09:19:00.565Z,27.3000
2019-05-17T09:19:10.100Z,27.5000
2019-05-17T09:19:19.416Z,27.6000
2019-05-17T09:19:29.897Z,27.8000
2019-05-17T09:19:39.474Z,27.9000
2019-05-17T09:19:50.507Z,28.1000
2019-05-17T09:20:00.722Z,28.2000
2019-05-17T09:20:10.697Z,27.9000
2019-05-17T09:20:20.396Z,27.8000
2019-05-17T09:20:29.631Z,27.7000
2019-05-17T09:20:40.241Z,27.6000
2019-05-17T09:20:49.498Z,27.5000
2019-05-17T09:21:00.068Z,27.5000
2019-05-17T09:21:09.697Z,27.5000
2019-05-17T09:21:18.256Z,27.5000
2019-05-17T09:21:26.680Z,27.5000
2019-05-17T09:21:35.087Z,27.5000
2019-05-17T09:21:43.503Z,27.4000
2019-05-17T09:21:51.918Z,27.4000
2019-05-17T09:22:00.327Z,27.4000
2019-05-17T09:22:10.536Z,27.3000
2019-05-17T09:22:19.806Z,27.3000
2019-05-17T09:22:30.419Z,27.2000
2019-05-17T09:22:39.589Z,27.1000
2019-05-17T09:22:48.303Z,27.0000
2019-05-17T09:22:56.715Z,26.9000
2019-05-17T09:23:05.144Z,26.9000
2019-05-17T09:23:13.558Z,26.8000
2019-05-17T09:23:21.960Z,26.7000
2019-05-17T09:23:30.673Z,26.6000
2019-05-17T09:23:39.692Z,26.6000
2019-05-17T09:23:50.224Z,26.5000
2019-05-17T09:23:59.751Z,26.4000
2019-05-17T09:24:10.253Z,26.6000
2019-05-17T09:24:35.339Z,26.6000
2019-05-17T09:24:43.742Z,26.4000
2019-05-17T09:24:52.149Z,26.4000
2019-05-17T09:25:00.562Z,26.3000
2019-05-17T09:25:13.587Z,26.2000
2019-05-17T09:25:23.382Z,26.2000
2019-05-17T09:25:31.802Z,26.2000
2019-05-17T09:25:40.263Z,26.2000
2019-05-17T09:25:50.073Z,26.3000
2019-05-17T09:25:59.522Z,26.3000
2019-05-17T09:26:10.059Z,26.3000
2019-05-17T09:26:19.978Z,26.4000
2019-05-17T09:26:29.412Z,26.4000
2019-05-17T09:26:39.949Z,26.5000
2019-05-17T09:26:49.217Z,26.5000
2019-05-17T09:26:59.857Z,26.5000
2019-05-17T09:39:15.463Z,11.7000
2019-05-17T09:39:23.883Z,18.5000
2019-05-17T09:39:32.360Z,18.3000
2019-05-17T09:39:40.774Z,18.4000
2019-05-17T09:39:49.323Z,18.5000
2019-05-17T09:39:59.700Z,18.6000
2019-05-17T09:40:09.359Z,18.7000
2019-05-17T09:40:20.027Z,18.8000
2019-05-17T09:40:29.270Z,18.9000
2019-05-17T09:40:40.130Z,19.0000
2019-05-17T09:40:50.549Z,19.1000
2019-05-17T09:41:00.014Z,19.2000
2019-05-17T09:41:09.364Z,19.3000
2019-05-17T09:41:19.886Z,18.7000
2019-05-17T09:41:29.319Z,15.4000
2019-05-17T09:41:39.752Z,12.3000
2019-05-17T09:41:50.299Z,10.2000
2019-05-17T09:41:59.597Z,8.5000
2019-05-17T09:42:10.191Z,7.6000
2019-05-17T09:42:20.945Z,7.0000
2019-05-17T09:42:30.088Z,6.5000
2019-05-17T09:42:41.147Z,6.0000
2019-05-17T09:42:50.056Z,5.7000
2019-05-17T09:43:00.523Z,5.4000
2019-05-17T09:43:10.213Z,5.2000
2019-05-17T09:43:20.524Z,4.7000
2019-05-17T09:43:29.647Z,4.1000
2019-05-17T09:43:40.226Z,3.7000
2019-05-17T09:43:49.686Z,3.4000
2019-05-17T09:44:09.600Z,3.2000
2019-05-17T09:44:16.192Z,3.0000
2019-05-17T09:44:25.114Z,2.8000
2019-05-17T09:44:33.621Z,2.7000
2019-05-17T09:44:42.643Z,2.6000
2019-05-17T09:44:51.120Z,2.5000
2019-05-17T09:45:00.390Z,2.5000
2019-05-17T09:45:09.654Z,2.4000
2019-05-17T09:45:20.206Z,2.4000
2019-05-17T09:45:30.606Z,2.3000
2019-05-17T09:45:40.396Z,2.3000
2019-05-17T09:45:50.667Z,2.2000
2019-05-17T09:46:01.689Z,2.2000
2019-05-17T09:46:10.807Z,2.1000
2019-05-17T09:46:19.786Z,2.0000
2019-05-17T09:46:30.283Z,2.0000
2019-05-17T09:46:39.565Z,2.0000
